sensor_id;sensor_type;location;lat;lon;timestamp;temperature;humidity
16635;DHT22;8431;52.458;9.998;2023-04-29T00:01:18;12.00;99.90
16635;DHT22;8431;52.458;9.998;2023-04-29T00:03:47;12.00;99.90
16635;DHT22;8431;52.458;9.998;2023-04-29T00:06:14;11.90;99.90
16635;DHT22;8431;52.458;9.998;2023-04-29T00:08:41;11.90;99.90
16635;DHT22;8431;52.458;9.998;2023-04-29T00:11:08;11.90;99.90
16635;DHT22;8431;52.458;9.998;2023-04-29T00:13:36;11.90;99.90
16635;DHT22;8431;52.458;9.998;2023-04-29T00:16:04;11.90;99.90
16635;DHT22;8431;52.458;9.998;2023-04-29T00:18:32;11.90;99.90
16635;DHT22;8431;52.458;9.998;2023-04-29T00:21:00;11.80;99.90
16635;DHT22;8431;52.458;9.998;2023-04-29T00:23:27;11.90;99.90
16635;DHT22;8431;52.458;9.998;2023-04-29T00:25:54;11.90;99.90
16635;DHT22;8431;52.458;9.998;2023-04-29T00:28:21;11.90;99.90
16635;DHT22;8431;52.458;9.998;2023-04-29T00:30:48;11.90;99.90
16635;DHT22;8431;52.458;9.998;2023-04-29T00:33:15;11.90;99.90
16635;DHT22;8431;52.458;9.998;2023-04-29T00:35:42;11.90;99.90
16635;DHT22;8431;52.458;9.998;2023-04-29T00:38:11;11.90;99.90
16635;DHT22;8431;52.458;9.998;2023-04-29T00:40:38;11.90;99.90
16635;DHT22;8431;52.458;9.998;2023-04-29T00:43:05;11.90;99.90
16635;DHT22;8431;52.458;9.998;2023-04-29T00:45:32;11.90;99.90
16635;DHT22;8431;52.458;9.998;2023-04-29T00:47:59;11.80;99.90
16635;DHT22;8431;52.458;9.998;2023-04-29T00:50:26;11.80;99.90
16635;DHT22;8431;52.458;9.998;2023-04-29T00:52:54;11.80;99.90
16635;DHT22;8431;52.458;9.998;2023-04-29T00:55:23;11.70;99.90
16635;DHT22;8431;52.458;9.998;2023-04-29T00:57:51;11.70;99.90
16635;DHT22;8431;52.458;9.998;2023-04-29T01:00:18;11.60;99.90
16635;DHT22;8431;52.458;9.998;2023-04-29T01:02:46;11.60;99.90
16635;DHT22;8431;52.458;9.998;2023-04-29T01:05:20;11.50;99.90
16635;DHT22;8431;52.458;9.998;2023-04-29T01:07:55;11.50;99.90
16635;DHT22;8431;52.458;9.998;2023-04-29T01:10:29;11.50;99.90
16635;DHT22;8431;52.458;9.998;2023-04-29T01:13:04;11.40;99.90
16635;DHT22;8431;52.458;9.998;2023-04-29T01:15:38;11.40;99.90
16635;DHT22;8431;52.458;9.998;2023-04-29T01:18:14;11.40;99.90
16635;DHT22;8431;52.458;9.998;2023-04-29T01:20:41;11.40;99.90
16635;DHT22;8431;52.458;9.998;2023-04-29T01:23:09;11.40;99.90
16635;DHT22;8431;52.458;9.998;2023-04-29T01:25:38;11.40;99.90
16635;DHT22;8431;52.458;9.998;2023-04-29T01:28:12;11.40;99.90
16635;DHT22;8431;52.458;9.998;2023-04-29T01:30:44;11.40;99.90
16635;DHT22;8431;52.458;9.998;2023-04-29T01:33:18;11.40;99.90
16635;DHT22;8431;52.458;9.998;2023-04-29T01:35:59;11.30;99.90
16635;DHT22;8431;52.458;9.998;2023-04-29T01:38:36;11.30;99.90
16635;DHT22;8431;52.458;9.998;2023-04-29T01:41:14;11.30;99.90
16635;DHT22;8431;52.458;9.998;2023-04-29T01:43:42;11.30;99.90
16635;DHT22;8431;52.458;9.998;2023-04-29T01:46:15;11.30;99.90
16635;DHT22;8431;52.458;9.998;2023-04-29T01:48:43;11.30;99.90
16635;DHT22;8431;52.458;9.998;2023-04-29T01:51:11;11.30;99.90
16635;DHT22;8431;52.458;9.998;2023-04-29T01:53:38;11.30;99.90
16635;DHT22;8431;52.458;9.998;2023-04-29T01:56:06;11.20;99.90
16635;DHT22;8431;52.458;9.998;2023-04-29T01:58:35;11.20;99.90
16635;DHT22;8431;52.458;9.998;2023-04-29T02:01:05;11.20;99.90
16635;DHT22;8431;52.458;9.998;2023-04-29T02:03:32;11.20;99.90
16635;DHT22;8431;52.458;9.998;2023-04-29T02:05:59;11.20;99.90
16635;DHT22;8431;52.458;9.998;2023-04-29T02:08:27;11.10;99.90
16635;DHT22;8431;52.458;9.998;2023-04-29T02:10:54;11.00;99.90
16635;DHT22;8431;52.458;9.998;2023-04-29T02:13:22;11.00;99.90
16635;DHT22;8431;52.458;9.998;2023-04-29T02:15:50;11.00;99.90
16635;DHT22;8431;52.458;9.998;2023-04-29T02:18:17;10.90;99.90
16635;DHT22;8431;52.458;9.998;2023-04-29T02:20:44;10.90;99.90
16635;DHT22;8431;52.458;9.998;2023-04-29T02:23:11;10.90;99.90
16635;DHT22;8431;52.458;9.998;2023-04-29T02:25:38;10.80;99.90
16635;DHT22;8431;52.458;9.998;2023-04-29T02:28:05;10.80;99.90
16635;DHT22;8431;52.458;9.998;2023-04-29T02:30:32;10.80;99.90
16635;DHT22;8431;52.458;9.998;2023-04-29T02:33:01;10.80;99.90
16635;DHT22;8431;52.458;9.998;2023-04-29T02:35:28;10.80;99.90
16635;DHT22;8431;52.458;9.998;2023-04-29T02:37:55;10.80;99.90
16635;DHT22;8431;52.458;9.998;2023-04-29T02:40:22;10.70;99.90
16635;DHT22;8431;52.458;9.998;2023-04-29T02:42:51;10.70;99.90
16635;DHT22;8431;52.458;9.998;2023-04-29T02:45:18;10.70;99.90
16635;DHT22;8431;52.458;9.998;2023-04-29T02:47:46;10.60;99.90
16635;DHT22;8431;52.458;9.998;2023-04-29T02:50:14;10.60;99.90
16635;DHT22;8431;52.458;9.998;2023-04-29T02:52:41;10.50;99.90
16635;DHT22;8431;52.458;9.998;2023-04-29T02:55:09;10.50;99.90
16635;DHT22;8431;52.458;9.998;2023-04-29T02:57:36;10.50;99.90
16635;DHT22;8431;52.458;9.998;2023-04-29T03:00:03;10.50;99.90
16635;DHT22;8431;52.458;9.998;2023-04-29T03:02:31;10.50;99.90
16635;DHT22;8431;52.458;9.998;2023-04-29T03:04:58;10.40;99.90
16635;DHT22;8431;52.458;9.998;2023-04-29T03:07:26;10.30;99.90
16635;DHT22;8431;52.458;9.998;2023-04-29T03:09:54;10.30;99.90
16635;DHT22;8431;52.458;9.998;2023-04-29T03:12:21;10.20;99.90
16635;DHT22;8431;52.458;9.998;2023-04-29T03:14:49;10.20;99.90
16635;DHT22;8431;52.458;9.998;2023-04-29T03:17:16;10.20;99.90
16635;DHT22;8431;52.458;9.998;2023-04-29T03:19:43;10.20;99.90
16635;DHT22;8431;52.458;9.998;2023-04-29T03:22:10;10.10;99.90
16635;DHT22;8431;52.458;9.998;2023-04-29T03:24:39;10.10;99.90
16635;DHT22;8431;52.458;9.998;2023-04-29T03:27:06;10.00;99.90
16635;DHT22;8431;52.458;9.998;2023-04-29T03:29:33;10.00;99.90
16635;DHT22;8431;52.458;9.998;2023-04-29T03:32:00;10.00;99.90
16635;DHT22;8431;52.458;9.998;2023-04-29T03:34:27;9.90;99.90
16635;DHT22;8431;52.458;9.998;2023-04-29T03:36:54;10.00;99.90
16635;DHT22;8431;52.458;9.998;2023-04-29T03:39:22;9.90;99.90
16635;DHT22;8431;52.458;9.998;2023-04-29T03:41:50;9.80;99.90
16635;DHT22;8431;52.458;9.998;2023-04-29T03:44:17;9.80;99.90
16635;DHT22;8431;52.458;9.998;2023-04-29T03:46:44;9.80;99.90
16635;DHT22;8431;52.458;9.998;2023-04-29T03:49:11;9.80;99.90
16635;DHT22;8431;52.458;9.998;2023-04-29T03:51:39;9.80;99.90
16635;DHT22;8431;52.458;9.998;2023-04-29T03:54:06;9.80;99.90
16635;DHT22;8431;52.458;9.998;2023-04-29T03:56:34;9.70;99.90
16635;DHT22;8431;52.458;9.998;2023-04-29T03:59:03;9.70;99.90
16635;DHT22;8431;52.458;9.998;2023-04-29T04:01:30;9.70;99.90
16635;DHT22;8431;52.458;9.998;2023-04-29T04:03:57;9.70;99.90
16635;DHT22;8431;52.458;9.998;2023-04-29T04:06:24;9.70;99.90
16635;DHT22;8431;52.458;9.998;2023-04-29T04:08:51;9.70;99.90
16635;DHT22;8431;52.458;9.998;2023-04-29T04:11:18;9.70;99.90
16635;DHT22;8431;52.458;9.998;2023-04-29T04:13:45;9.60;99.90
16635;DHT22;8431;52.458;9.998;2023-04-29T04:16:14;9.70;99.90
16635;DHT22;8431;52.458;9.998;2023-04-29T04:18:44;9.60;99.90
16635;DHT22;8431;52.458;9.998;2023-04-29T04:21:12;9.60;99.90
16635;DHT22;8431;52.458;9.998;2023-04-29T04:23:39;9.60;99.90
16635;DHT22;8431;52.458;9.998;2023-04-29T04:26:06;9.50;99.90
16635;DHT22;8431;52.458;9.998;2023-04-29T04:28:33;9.60;99.90
16635;DHT22;8431;52.458;9.998;2023-04-29T04:31:02;9.50;99.90
16635;DHT22;8431;52.458;9.998;2023-04-29T04:33:31;9.60;99.90
16635;DHT22;8431;52.458;9.998;2023-04-29T04:35:59;9.50;99.90
16635;DHT22;8431;52.458;9.998;2023-04-29T04:38:26;9.50;99.90
16635;DHT22;8431;52.458;9.998;2023-04-29T04:40:53;9.50;99.90
16635;DHT22;8431;52.458;9.998;2023-04-29T04:43:20;9.50;99.90
16635;DHT22;8431;52.458;9.998;2023-04-29T04:45:48;9.50;99.90
16635;DHT22;8431;52.458;9.998;2023-04-29T04:48:15;9.50;99.90
16635;DHT22;8431;52.458;9.998;2023-04-29T04:50:44;9.40;99.90
16635;DHT22;8431;52.458;9.998;2023-04-29T04:53:14;9.40;99.90
16635;DHT22;8431;52.458;9.998;2023-04-29T04:55:41;9.50;99.90
16635;DHT22;8431;52.458;9.998;2023-04-29T04:58:09;9.50;99.90
16635;DHT22;8431;52.458;9.998;2023-04-29T05:00:36;9.50;99.90
16635;DHT22;8431;52.458;9.998;2023-04-29T05:03:03;9.50;99.90
16635;DHT22;8431;52.458;9.998;2023-04-29T05:05:32;9.50;99.90
16635;DHT22;8431;52.458;9.998;2023-04-29T05:08:00;9.50;99.90
16635;DHT22;8431;52.458;9.998;2023-04-29T05:10:28;9.50;99.90
16635;DHT22;8431;52.458;9.998;2023-04-29T05:12:55;9.50;99.90
16635;DHT22;8431;52.458;9.998;2023-04-29T05:15:22;9.40;99.90
16635;DHT22;8431;52.458;9.998;2023-04-29T05:17:52;9.40;99.90
16635;DHT22;8431;52.458;9.998;2023-04-29T05:20:19;9.40;99.90
16635;DHT22;8431;52.458;9.998;2023-04-29T05:22:47;9.30;99.90
16635;DHT22;8431;52.458;9.998;2023-04-29T05:25:15;9.40;99.90
16635;DHT22;8431;52.458;9.998;2023-04-29T05:27:42;9.30;99.90
16635;DHT22;8431;52.458;9.998;2023-04-29T05:30:10;9.40;99.90
16635;DHT22;8431;52.458;9.998;2023-04-29T05:32:37;9.40;99.90
16635;DHT22;8431;52.458;9.998;2023-04-29T05:35:06;9.40;99.90
16635;DHT22;8431;52.458;9.998;2023-04-29T05:37:33;9.50;99.90
16635;DHT22;8431;52.458;9.998;2023-04-29T05:40:00;9.50;99.90
16635;DHT22;8431;52.458;9.998;2023-04-29T05:42:29;9.50;99.90
16635;DHT22;8431;52.458;9.998;2023-04-29T05:44:56;9.50;99.90
16635;DHT22;8431;52.458;9.998;2023-04-29T05:47:23;9.60;99.90
16635;DHT22;8431;52.458;9.998;2023-04-29T05:49:50;9.50;99.90
16635;DHT22;8431;52.458;9.998;2023-04-29T05:52:17;9.60;99.90
16635;DHT22;8431;52.458;9.998;2023-04-29T05:54:44;9.60;99.90
16635;DHT22;8431;52.458;9.998;2023-04-29T05:57:11;9.70;99.90
16635;DHT22;8431;52.458;9.998;2023-04-29T05:59:40;9.70;99.90
16635;DHT22;8431;52.458;9.998;2023-04-29T06:02:07;9.80;99.90
16635;DHT22;8431;52.458;9.998;2023-04-29T06:04:35;9.70;99.90
16635;DHT22;8431;52.458;9.998;2023-04-29T06:07:02;9.80;99.90
16635;DHT22;8431;52.458;9.998;2023-04-29T06:09:29;9.90;99.90
16635;DHT22;8431;52.458;9.998;2023-04-29T06:11:57;9.90;99.90
16635;DHT22;8431;52.458;9.998;2023-04-29T06:14:25;9.90;99.90
16635;DHT22;8431;52.458;9.998;2023-04-29T06:16:53;9.90;99.90
16635;DHT22;8431;52.458;9.998;2023-04-29T06:19:28;9.80;99.90
16635;DHT22;8431;52.458;9.998;2023-04-29T06:21:57;9.80;99.90
16635;DHT22;8431;52.458;9.998;2023-04-29T06:24:24;9.70;99.90
16635;DHT22;8431;52.458;9.998;2023-04-29T06:26:51;9.70;99.90
16635;DHT22;8431;52.458;9.998;2023-04-29T06:29:18;9.70;99.90
16635;DHT22;8431;52.458;9.998;2023-04-29T06:31:45;9.60;99.90
16635;DHT22;8431;52.458;9.998;2023-04-29T06:34:13;9.60;99.90
16635;DHT22;8431;52.458;9.998;2023-04-29T06:36:40;9.70;99.90
16635;DHT22;8431;52.458;9.998;2023-04-29T06:39:07;9.70;99.90
16635;DHT22;8431;52.458;9.998;2023-04-29T06:52:20;9.80;99.90
16635;DHT22;8431;52.458;9.998;2023-04-29T06:54:50;10.00;99.90
16635;DHT22;8431;52.458;9.998;2023-04-29T06:57:18;10.10;99.90
16635;DHT22;8431;52.458;9.998;2023-04-29T06:59:45;10.30;99.90
16635;DHT22;8431;52.458;9.998;2023-04-29T07:02:12;10.40;99.90
16635;DHT22;8431;52.458;9.998;2023-04-29T07:04:39;10.60;99.90
16635;DHT22;8431;52.458;9.998;2023-04-29T07:07:06;10.80;99.90
16635;DHT22;8431;52.458;9.998;2023-04-29T07:09:35;11.00;99.90
16635;DHT22;8431;52.458;9.998;2023-04-29T07:12:02;11.10;99.90
16635;DHT22;8431;52.458;9.998;2023-04-29T07:14:29;11.40;99.90
16635;DHT22;8431;52.458;9.998;2023-04-29T07:16:57;11.40;99.90
16635;DHT22;8431;52.458;9.998;2023-04-29T07:19:24;11.40;99.90
16635;DHT22;8431;52.458;9.998;2023-04-29T07:21:52;11.40;99.90
16635;DHT22;8431;52.458;9.998;2023-04-29T07:24:38;11.40;99.90
16635;DHT22;8431;52.458;9.998;2023-04-29T07:27:06;11.40;99.90
16635;DHT22;8431;52.458;9.998;2023-04-29T07:29:33;11.40;99.90
16635;DHT22;8431;52.458;9.998;2023-04-29T07:32:00;11.30;99.90
16635;DHT22;8431;52.458;9.998;2023-04-29T07:34:27;11.40;99.90
16635;DHT22;8431;52.458;9.998;2023-04-29T07:36:54;11.40;99.90
16635;DHT22;8431;52.458;9.998;2023-04-29T07:39:28;11.40;99.90
16635;DHT22;8431;52.458;9.998;2023-04-29T07:41:56;11.40;99.90
16635;DHT22;8431;52.458;9.998;2023-04-29T07:44:24;11.50;99.90
16635;DHT22;8431;52.458;9.998;2023-04-29T07:46:51;11.70;99.90
16635;DHT22;8431;52.458;9.998;2023-04-29T07:49:32;11.80;99.90
16635;DHT22;8431;52.458;9.998;2023-04-29T07:52:00;11.70;99.90
16635;DHT22;8431;52.458;9.998;2023-04-29T07:54:27;11.80;99.90
16635;DHT22;8431;52.458;9.998;2023-04-29T07:56:56;12.10;99.90
16635;DHT22;8431;52.458;9.998;2023-04-29T07:59:23;12.00;99.90
16635;DHT22;8431;52.458;9.998;2023-04-29T08:01:50;12.00;99.90
16635;DHT22;8431;52.458;9.998;2023-04-29T08:04:18;12.00;99.90
16635;DHT22;8431;52.458;9.998;2023-04-29T08:06:45;11.90;99.90
16635;DHT22;8431;52.458;9.998;2023-04-29T08:09:13;12.00;99.90
16635;DHT22;8431;52.458;9.998;2023-04-29T08:11:40;11.90;99.90
16635;DHT22;8431;52.458;9.998;2023-04-29T08:14:09;12.00;99.90
16635;DHT22;8431;52.458;9.998;2023-04-29T08:16:36;12.10;99.90
16635;DHT22;8431;52.458;9.998;2023-04-29T08:19:03;12.50;99.90
16635;DHT22;8431;52.458;9.998;2023-04-29T08:21:30;12.30;99.90
16635;DHT22;8431;52.458;9.998;2023-04-29T08:23:58;12.50;99.90
16635;DHT22;8431;52.458;9.998;2023-04-29T08:26:25;12.60;99.90
16635;DHT22;8431;52.458;9.998;2023-04-29T08:28:52;12.60;99.90
16635;DHT22;8431;52.458;9.998;2023-04-29T08:31:21;12.70;99.90
16635;DHT22;8431;52.458;9.998;2023-04-29T08:33:48;12.80;99.90
16635;DHT22;8431;52.458;9.998;2023-04-29T08:36:15;13.20;99.90
16635;DHT22;8431;52.458;9.998;2023-04-29T08:38:42;13.20;99.90
16635;DHT22;8431;52.458;9.998;2023-04-29T08:41:09;13.30;99.90
16635;DHT22;8431;52.458;9.998;2023-04-29T08:43:36;13.50;99.90
16635;DHT22;8431;52.458;9.998;2023-04-29T08:46:05;14.10;99.90
16635;DHT22;8431;52.458;9.998;2023-04-29T08:48:36;14.40;99.90
16635;DHT22;8431;52.458;9.998;2023-04-29T08:51:04;14.70;99.90
16635;DHT22;8431;52.458;9.998;2023-04-29T08:53:31;14.30;99.90
16635;DHT22;8431;52.458;9.998;2023-04-29T08:56:03;13.80;99.90
16635;DHT22;8431;52.458;9.998;2023-04-29T08:58:35;13.50;99.90
16635;DHT22;8431;52.458;9.998;2023-04-29T09:01:06;13.80;99.90
16635;DHT22;8431;52.458;9.998;2023-04-29T09:03:42;13.50;99.90
16635;DHT22;8431;52.458;9.998;2023-04-29T09:06:10;13.50;99.90
16635;DHT22;8431;52.458;9.998;2023-04-29T09:08:38;13.50;99.90
16635;DHT22;8431;52.458;9.998;2023-04-29T09:11:07;13.90;99.90
16635;DHT22;8431;52.458;9.998;2023-04-29T09:13:35;14.30;99.90
16635;DHT22;8431;52.458;9.998;2023-04-29T09:16:02;14.40;99.90
16635;DHT22;8431;52.458;9.998;2023-04-29T09:18:45;14.00;99.90
16635;DHT22;8431;52.458;9.998;2023-04-29T09:21:16;14.20;99.90
16635;DHT22;8431;52.458;9.998;2023-04-29T09:23:44;14.30;99.90
16635;DHT22;8431;52.458;9.998;2023-04-29T09:26:11;14.30;99.90
16635;DHT22;8431;52.458;9.998;2023-04-29T09:28:38;13.90;99.90
16635;DHT22;8431;52.458;9.998;2023-04-29T09:31:08;14.30;99.90
16635;DHT22;8431;52.458;9.998;2023-04-29T09:33:54;14.30;99.90
16635;DHT22;8431;52.458;9.998;2023-04-29T09:36:35;14.20;99.90
16635;DHT22;8431;52.458;9.998;2023-04-29T09:39:03;13.80;99.90
16635;DHT22;8431;52.458;9.998;2023-04-29T09:41:30;13.40;99.90
16635;DHT22;8431;52.458;9.998;2023-04-29T09:44:04;13.10;99.90
16635;DHT22;8431;52.458;9.998;2023-04-29T09:46:32;13.10;99.90
16635;DHT22;8431;52.458;9.998;2023-04-29T09:49:01;13.20;99.90
16635;DHT22;8431;52.458;9.998;2023-04-29T09:51:29;13.40;99.90
16635;DHT22;8431;52.458;9.998;2023-04-29T09:53:59;13.70;99.90
16635;DHT22;8431;52.458;9.998;2023-04-29T09:56:27;13.80;99.90
16635;DHT22;8431;52.458;9.998;2023-04-29T09:58:55;13.90;99.90
16635;DHT22;8431;52.458;9.998;2023-04-29T10:01:26;13.80;99.90
16635;DHT22;8431;52.458;9.998;2023-04-29T10:03:54;13.90;99.90
16635;DHT22;8431;52.458;9.998;2023-04-29T10:06:24;13.80;99.90
16635;DHT22;8431;52.458;9.998;2023-04-29T10:08:51;13.90;99.90
16635;DHT22;8431;52.458;9.998;2023-04-29T10:11:19;13.80;99.90
16635;DHT22;8431;52.458;9.998;2023-04-29T10:13:49;13.90;99.90
16635;DHT22;8431;52.458;9.998;2023-04-29T10:16:26;13.90;99.90
16635;DHT22;8431;52.458;9.998;2023-04-29T10:18:54;14.00;99.90
16635;DHT22;8431;52.458;9.998;2023-04-29T10:21:28;14.10;99.90
16635;DHT22;8431;52.458;9.998;2023-04-29T10:23:57;13.90;99.90
16635;DHT22;8431;52.458;9.998;2023-04-29T10:26:26;14.00;99.90
16635;DHT22;8431;52.458;9.998;2023-04-29T10:28:56;14.00;99.90
16635;DHT22;8431;52.458;9.998;2023-04-29T10:31:25;14.00;99.90
16635;DHT22;8431;52.458;9.998;2023-04-29T10:33:55;14.00;99.90
16635;DHT22;8431;52.458;9.998;2023-04-29T10:36:23;13.90;99.90
16635;DHT22;8431;52.458;9.998;2023-04-29T10:38:57;13.80;99.90
16635;DHT22;8431;52.458;9.998;2023-04-29T10:41:26;13.70;99.90
16635;DHT22;8431;52.458;9.998;2023-04-29T10:43:54;13.60;99.90
16635;DHT22;8431;52.458;9.998;2023-04-29T10:46:22;13.60;99.90
16635;DHT22;8431;52.458;9.998;2023-04-29T10:48:55;13.90;99.90
16635;DHT22;8431;52.458;9.998;2023-04-29T10:51:29;14.20;99.90
16635;DHT22;8431;52.458;9.998;2023-04-29T10:54:00;14.50;99.90
16635;DHT22;8431;52.458;9.998;2023-04-29T10:56:46;15.10;99.90
16635;DHT22;8431;52.458;9.998;2023-04-29T10:59:15;15.10;99.90
16635;DHT22;8431;52.458;9.998;2023-04-29T11:01:47;14.80;99.90
16635;DHT22;8431;52.458;9.998;2023-04-29T11:04:15;14.50;99.90
16635;DHT22;8431;52.458;9.998;2023-04-29T11:06:44;14.30;99.90
16635;DHT22;8431;52.458;9.998;2023-04-29T11:09:20;14.50;99.90
16635;DHT22;8431;52.458;9.998;2023-04-29T11:11:59;14.90;99.90
16635;DHT22;8431;52.458;9.998;2023-04-29T11:14:30;15.00;99.90
16635;DHT22;8431;52.458;9.998;2023-04-29T11:16:59;14.90;99.90
16635;DHT22;8431;52.458;9.998;2023-04-29T11:19:30;14.40;99.90
16635;DHT22;8431;52.458;9.998;2023-04-29T11:22:10;14.20;99.90
16635;DHT22;8431;52.458;9.998;2023-04-29T11:24:50;14.10;99.90
16635;DHT22;8431;52.458;9.998;2023-04-29T11:27:18;14.30;99.90
16635;DHT22;8431;52.458;9.998;2023-04-29T11:29:49;14.40;99.90
16635;DHT22;8431;52.458;9.998;2023-04-29T11:32:21;14.80;99.90
16635;DHT22;8431;52.458;9.998;2023-04-29T11:34:48;15.10;99.90
16635;DHT22;8431;52.458;9.998;2023-04-29T11:37:20;15.10;99.90
16635;DHT22;8431;52.458;9.998;2023-04-29T11:39:49;15.00;99.90
16635;DHT22;8431;52.458;9.998;2023-04-29T11:42:24;14.70;99.90
16635;DHT22;8431;52.458;9.998;2023-04-29T11:44:52;14.50;99.90
16635;DHT22;8431;52.458;9.998;2023-04-29T11:47:25;14.20;99.90
16635;DHT22;8431;52.458;9.998;2023-04-29T11:49:52;14.00;99.90
16635;DHT22;8431;52.458;9.998;2023-04-29T11:52:19;14.10;99.90
16635;DHT22;8431;52.458;9.998;2023-04-29T11:54:50;14.40;99.90
16635;DHT22;8431;52.458;9.998;2023-04-29T11:57:42;14.90;99.90
16635;DHT22;8431;52.458;9.998;2023-04-29T12:00:09;15.30;99.90
16635;DHT22;8431;52.458;9.998;2023-04-29T12:02:38;15.20;99.90
16635;DHT22;8431;52.458;9.998;2023-04-29T12:05:07;15.20;99.90
16635;DHT22;8431;52.458;9.998;2023-04-29T12:07:34;15.00;99.90
16635;DHT22;8431;52.458;9.998;2023-04-29T12:10:09;14.80;99.90
16635;DHT22;8431;52.458;9.998;2023-04-29T12:12:36;14.80;99.90
16635;DHT22;8431;52.458;9.998;2023-04-29T12:15:09;14.80;99.90
16635;DHT22;8431;52.458;9.998;2023-04-29T12:17:47;14.90;99.90
16635;DHT22;8431;52.458;9.998;2023-04-29T12:20:14;14.90;99.90
16635;DHT22;8431;52.458;9.998;2023-04-29T12:22:41;15.20;99.90
16635;DHT22;8431;52.458;9.998;2023-04-29T12:25:11;15.40;99.90
16635;DHT22;8431;52.458;9.998;2023-04-29T12:27:39;15.40;99.90
16635;DHT22;8431;52.458;9.998;2023-04-29T12:30:07;15.30;99.90
16635;DHT22;8431;52.458;9.998;2023-04-29T12:32:35;15.10;99.90
16635;DHT22;8431;52.458;9.998;2023-04-29T12:35:02;15.00;99.90
16635;DHT22;8431;52.458;9.998;2023-04-29T12:37:29;15.00;99.90
16635;DHT22;8431;52.458;9.998;2023-04-29T12:39:58;15.20;99.90
16635;DHT22;8431;52.458;9.998;2023-04-29T12:42:32;15.20;99.90
16635;DHT22;8431;52.458;9.998;2023-04-29T12:44:59;15.10;99.90
16635;DHT22;8431;52.458;9.998;2023-04-29T12:47:31;15.00;99.90
16635;DHT22;8431;52.458;9.998;2023-04-29T12:50:00;14.90;99.90
16635;DHT22;8431;52.458;9.998;2023-04-29T12:52:27;14.80;99.90
16635;DHT22;8431;52.458;9.998;2023-04-29T12:54:56;14.60;99.90
16635;DHT22;8431;52.458;9.998;2023-04-29T12:57:23;14.40;99.90
16635;DHT22;8431;52.458;9.998;2023-04-29T12:59:52;14.30;99.90
16635;DHT22;8431;52.458;9.998;2023-04-29T13:02:19;14.30;99.90
16635;DHT22;8431;52.458;9.998;2023-04-29T13:04:46;14.30;99.90
